createdAt,value
2018-04-17T00:00:19.680Z,23.3
2018-04-17T00:01:08.950Z,23.3
2018-04-17T00:01:59.871Z,23.3
2018-04-17T00:02:49.388Z,23.2
2018-04-17T00:03:38.970Z,23.2
2018-04-17T00:04:29.191Z,23.2
2018-04-17T00:05:19.825Z,23.2
2018-04-17T00:06:08.539Z,23.2
2018-04-17T00:06:58.924Z,23.2
2018-04-17T00:07:48.940Z,23.1
2018-04-17T00:08:39.017Z,23.1
2018-04-17T00:09:29.097Z,23.1
2018-04-17T00:10:19.964Z,23.1
2018-04-17T00:11:09.598Z,23.1
2018-04-17T00:12:00.095Z,23.1
2018-04-17T00:12:49.677Z,23.1
2018-04-17T00:13:40.297Z,23.1
2018-04-17T00:14:29.545Z,23.1
2018-04-17T00:15:19.319Z,23.1
2018-04-17T00:16:10.106Z,23.1
2018-04-17T00:17:00.234Z,23.1
2018-04-17T00:17:50.240Z,23
2018-04-17T00:18:40.031Z,23
2018-04-17T00:19:30.693Z,23
2018-04-17T00:20:20.958Z,23
2018-04-17T00:21:11.329Z,23
2018-04-17T00:22:01.119Z,23
2018-04-17T00:22:50.696Z,22.9
2018-04-17T00:23:41.193Z,22.9
2018-04-17T00:24:31.246Z,22.9
2018-04-17T00:25:21.067Z,22.9
2018-04-17T00:26:11.706Z,22.9
2018-04-17T00:27:01.237Z,22.9
2018-04-17T00:27:50.663Z,22.9
2018-04-17T00:28:41.030Z,22.9
2018-04-17T00:29:31.419Z,22.9
2018-04-17T00:30:21.463Z,22.9
2018-04-17T00:31:10.892Z,22.9
2018-04-17T00:32:01.290Z,22.9
2018-04-17T00:32:51.322Z,22.9
2018-04-17T00:33:42.053Z,22.9
2018-04-17T00:34:32.045Z,22.9
2018-04-17T00:35:22.418Z,22.8
2018-04-17T00:36:11.927Z,22.8
2018-04-17T00:37:01.933Z,22.8
2018-04-17T00:37:52.304Z,22.8
2018-04-17T00:38:42.328Z,22.8
2018-04-17T00:39:31.572Z,22.8
2018-04-17T00:40:22.468Z,22.8
2018-04-17T00:41:12.546Z,22.8
2018-04-17T00:42:02.871Z,22.8
2018-04-17T00:42:52.078Z,22.8
2018-04-17T00:43:42.975Z,22.8
2018-04-17T00:44:32.494Z,22.8
2018-04-17T00:45:22.809Z,22.7
2018-04-17T00:46:12.928Z,22.7
2018-04-17T00:47:02.679Z,22.7
2018-04-17T00:47:53.026Z,22.7
2018-04-17T00:48:42.822Z,22.7
2018-04-17T00:49:33.441Z,22.6
2018-04-17T00:50:22.337Z,22.7
2018-04-17T00:51:13.016Z,22.6
2018-04-17T00:52:03.369Z,22.6
2018-04-17T00:52:52.925Z,22.6
2018-04-17T00:53:43.790Z,22.6
2018-04-17T00:54:32.411Z,22.6
2018-04-17T00:55:23.626Z,22.6
2018-04-17T00:56:13.937Z,22.6
2018-04-17T00:57:03.443Z,22.6
2018-04-17T00:57:53.235Z,22.6
2018-04-17T00:58:43.300Z,22.6
2018-04-17T00:59:33.905Z,22.6
2018-04-17T01:00:24.010Z,22.6
2018-04-17T01:01:14.305Z,22.6
2018-04-17T01:02:02.686Z,22.6
2018-04-17T01:02:53.854Z,22.5
2018-04-17T01:03:43.657Z,22.5
2018-04-17T01:04:33.703Z,22.5
2018-04-17T01:05:24.100Z,22.5
2018-04-17T01:06:14.695Z,22.5
2018-04-17T01:07:04.162Z,22.5
2018-04-17T01:07:54.235Z,22.5
2018-04-17T01:08:44.090Z,22.5
2018-04-17T01:09:34.394Z,22.4
2018-04-17T01:10:24.160Z,22.4
2018-04-17T01:11:15.072Z,22.4
2018-04-17T01:12:04.845Z,22.4
2018-04-17T01:12:55.160Z,22.4
2018-04-17T01:13:44.675Z,22.4
2018-04-17T01:14:35.377Z,22.4
2018-04-17T01:15:25.087Z,22.4
2018-04-17T01:16:14.643Z,22.4
2018-04-17T01:17:05.252Z,22.4
2018-04-17T01:17:54.728Z,22.4
2018-04-17T01:18:45.326Z,22.4
2018-04-17T01:19:35.419Z,22.4
2018-04-17T01:20:24.347Z,22.4
2018-04-17T01:21:15.011Z,22.4
2018-04-17T01:22:05.318Z,22.4
2018-04-17T01:22:55.667Z,22.3
2018-04-17T01:23:45.751Z,22.4
2018-04-17T01:24:35.829Z,22.4
2018-04-17T01:25:25.591Z,22.3
2018-04-17T01:26:15.411Z,22.3
2018-04-17T01:27:05.712Z,22.3
2018-04-17T01:27:56.331Z,22.3
2018-04-17T01:28:45.594Z,22.3
2018-04-17T01:29:36.185Z,22.3
2018-04-17T01:30:25.940Z,22.3
2018-04-17T01:31:14.888Z,22.3
2018-04-17T01:32:06.641Z,22.3
2018-04-17T01:32:56.192Z,22.3
2018-04-17T01:33:46.790Z,22.3
2018-04-17T01:34:36.789Z,22.3
2018-04-17T01:35:26.331Z,22.3
2018-04-17T01:36:16.398Z,22.3
2018-04-17T01:37:05.879Z,22.2
2018-04-17T01:37:55.973Z,22.3
2018-04-17T01:38:46.602Z,22.3
2018-04-17T01:39:36.642Z,22.3
2018-04-17T01:40:26.682Z,22.2
2018-04-17T01:41:16.470Z,22.2
2018-04-17T01:42:06.284Z,22.2
2018-04-17T01:42:56.905Z,22.2
2018-04-17T01:43:47.344Z,22.2
2018-04-17T01:44:37.273Z,22.2
2018-04-17T01:45:26.804Z,22.1
2018-04-17T01:46:16.576Z,22.1
2018-04-17T01:47:06.916Z,22.1
2018-04-17T01:47:57.319Z,22.1
2018-04-17T01:48:47.616Z,22.1
2018-04-17T01:49:37.428Z,22.1
2018-04-17T01:50:27.494Z,22.1
2018-04-17T01:51:17.520Z,22.1
2018-04-17T01:52:07.289Z,22.1
2018-04-17T01:52:57.371Z,22.1
2018-04-17T01:53:48.037Z,22.1
2018-04-17T01:54:38.053Z,22.1
2018-04-17T01:55:27.835Z,22.1
2018-04-17T01:56:18.750Z,22.1
2018-04-17T01:57:08.237Z,22.1
2018-04-17T01:57:58.308Z,22.1
2018-04-17T01:58:47.543Z,22.1
2018-04-17T01:59:37.584Z,22.1
2018-04-17T02:00:28.521Z,22.1
2018-04-17T02:01:17.992Z,22
2018-04-17T02:02:08.334Z,22
2018-04-17T02:02:58.661Z,22.1
2018-04-17T02:03:49.065Z,22
2018-04-17T02:04:38.581Z,22
2018-04-17T02:05:28.870Z,22
2018-04-17T02:06:18.373Z,22
2018-04-17T02:07:08.173Z,22
2018-04-17T02:07:58.493Z,22
2018-04-17T02:08:48.217Z,22
2018-04-17T02:09:38.418Z,22
2018-04-17T02:10:28.417Z,22
2018-04-17T02:11:19.558Z,22
2018-04-17T02:12:09.716Z,22
2018-04-17T02:12:59.802Z,22
2018-04-17T02:13:49.501Z,22
2018-04-17T02:14:39.023Z,22
2018-04-17T02:15:29.628Z,22
2018-04-17T02:16:19.679Z,21.9
2018-04-17T02:17:09.500Z,21.9
2018-04-17T02:18:00.104Z,21.9
2018-04-17T02:18:49.948Z,21.9
2018-04-17T02:19:39.940Z,21.9
2018-04-17T02:20:29.422Z,21.9
2018-04-17T02:21:19.482Z,21.9
2018-04-17T02:22:09.379Z,21.9
2018-04-17T02:23:00.197Z,21.9
2018-04-17T02:23:49.976Z,21.9
2018-04-17T02:24:40.582Z,21.9
2018-04-17T02:25:30.094Z,21.9
2018-04-17T02:26:20.458Z,21.9
2018-04-17T02:27:09.945Z,21.9
2018-04-17T02:28:00.874Z,21.9
2018-04-17T02:28:50.642Z,21.9
2018-04-17T02:29:40.669Z,21.9
2018-04-17T02:30:30.812Z,21.9
2018-04-17T02:31:20.048Z,21.9
2018-04-17T02:32:10.650Z,21.9
2018-04-17T02:33:00.693Z,21.9
2018-04-17T02:33:50.823Z,21.9
2018-04-17T02:34:40.522Z,21.9
2018-04-17T02:35:30.858Z,21.9
2018-04-17T02:36:21.222Z,21.9
2018-04-17T02:37:11.012Z,21.9
2018-04-17T02:38:01.354Z,21.8
2018-04-17T02:38:51.667Z,21.8
2018-04-17T02:39:40.940Z,21.8
2018-04-17T02:40:30.692Z,21.8
2018-04-17T02:41:21.306Z,21.8
2018-04-17T02:42:11.369Z,21.8
2018-04-17T02:43:01.736Z,21.8
2018-04-17T02:43:52.047Z,21.8
2018-04-17T02:44:41.676Z,21.8
2018-04-17T02:45:31.364Z,21.8
2018-04-17T02:46:22.274Z,21.8
2018-04-17T02:47:11.995Z,21.8
2018-04-17T02:48:01.322Z,21.8
2018-04-17T02:48:51.324Z,21.8
2018-04-17T02:49:41.940Z,21.8
2018-04-17T02:50:31.723Z,21.8
2018-04-17T02:51:22.639Z,21.8
2018-04-17T02:52:12.381Z,21.8
2018-04-17T02:53:01.579Z,21.8
2018-04-17T02:53:52.508Z,21.8
2018-04-17T02:54:42.619Z,21.8
2018-04-17T02:55:32.920Z,21.8
2018-04-17T02:56:21.878Z,21.8
2018-04-17T02:57:12.760Z,21.8
2018-04-17T02:58:02.575Z,21.8
2018-04-17T02:58:51.775Z,21.8
2018-04-17T02:59:42.161Z,21.8
2018-04-17T03:00:33.010Z,21.7
2018-04-17T03:01:23.073Z,21.8
2018-04-17T03:02:12.571Z,21.8
2018-04-17T03:03:02.747Z,21.7
2018-04-17T03:03:52.448Z,21.7
2018-04-17T03:04:43.163Z,21.7
2018-04-17T03:05:33.428Z,21.7
2018-04-17T03:06:22.898Z,21.7
2018-04-17T03:07:13.507Z,21.7
2018-04-17T03:08:02.773Z,21.7
2018-04-17T03:08:53.095Z,21.7
2018-04-17T03:09:43.463Z,21.7
2018-04-17T03:10:34.076Z,21.7
2018-04-17T03:11:23.581Z,21.7
2018-04-17T03:12:12.777Z,21.7
2018-04-17T03:13:03.941Z,21.7
2018-04-17T03:13:53.718Z,21.6
2018-04-17T03:14:43.588Z,21.6
2018-04-17T03:15:33.870Z,21.6
2018-04-17T03:16:24.223Z,21.6
2018-04-17T03:17:14.257Z,21.6
2018-04-17T03:18:04.636Z,21.6
2018-04-17T03:18:54.365Z,21.6
2018-04-17T03:19:44.493Z,21.6
2018-04-17T03:20:33.670Z,21.6
2018-04-17T03:21:24.834Z,21.6
2018-04-17T03:22:14.632Z,21.6
2018-04-17T03:23:04.673Z,21.6
2018-04-17T03:23:54.560Z,21.6
2018-04-17T03:24:45.141Z,21.6
2018-04-17T03:25:34.772Z,21.6
2018-04-17T03:26:24.365Z,21.6
2018-04-17T03:27:14.839Z,21.6
2018-04-17T03:28:04.875Z,21.6
2018-04-17T03:28:54.876Z,21.6
2018-04-17T03:29:44.657Z,21.6
2018-04-17T03:30:34.695Z,21.6
2018-04-17T03:31:25.065Z,21.6
2018-04-17T03:32:14.916Z,21.6
2018-04-17T03:33:05.222Z,21.6
2018-04-17T03:33:54.756Z,21.6
2018-04-17T03:34:45.304Z,21.6
2018-04-17T03:35:35.904Z,21.6
2018-04-17T03:36:25.726Z,21.6
2018-04-17T03:37:15.831Z,21.6
2018-04-17T03:38:05.808Z,21.6
2018-04-17T03:38:55.645Z,21.6
2018-04-17T03:39:45.987Z,21.6
2018-04-17T03:41:34.232Z,21.6
2018-04-17T03:42:24.421Z,21.6
2018-04-17T03:43:14.342Z,21.6
2018-04-17T03:44:04.201Z,21.6
2018-04-17T03:44:55.091Z,21.6
2018-04-17T03:45:59.182Z,21.5
2018-04-17T03:46:34.704Z,21.6
2018-04-17T03:47:24.362Z,21.6
2018-04-17T03:48:14.987Z,21.5
2018-04-17T03:49:04.238Z,21.5
2018-04-17T03:49:55.214Z,21.5
2018-04-17T03:50:44.729Z,21.5
2018-04-17T03:51:34.753Z,21.5
2018-04-17T03:52:25.032Z,21.5
2018-04-17T03:53:15.208Z,21.5
2018-04-17T03:54:04.926Z,21.5
2018-04-17T03:54:55.011Z,21.5
2018-04-17T03:55:44.513Z,21.5
2018-04-17T03:56:35.659Z,21.5
2018-04-17T03:57:25.741Z,21.5
2018-04-17T03:58:15.080Z,21.4
2018-04-17T03:59:34.411Z,21.4
2018-04-17T03:59:55.478Z,21.4
2018-04-17T04:00:45.707Z,21.4
2018-04-17T04:01:35.610Z,21.4
2018-04-17T04:02:25.085Z,21.4
2018-04-17T04:03:15.683Z,21.4
2018-04-17T04:04:04.104Z,21.4
2018-04-17T04:04:56.087Z,21.4
2018-04-17T04:05:45.902Z,21.4
2018-04-17T04:06:36.485Z,21.4
2018-04-17T04:07:25.520Z,21.4
2018-04-17T04:08:16.323Z,21.4
2018-04-17T04:09:05.840Z,21.3
2018-04-17T04:09:55.933Z,21.3
2018-04-17T04:10:46.253Z,21.3
2018-04-17T04:11:36.328Z,21.3
2018-04-17T04:12:41.245Z,21.2
2018-04-17T04:13:16.386Z,21.2
2018-04-17T04:17:41.057Z,21.1
2018-04-17T04:18:32.135Z,21.1
2018-04-17T04:19:57.429Z,21
2018-04-17T04:20:46.692Z,21
2018-04-17T04:21:36.774Z,21
2018-04-17T04:22:41.722Z,21
2018-04-17T04:23:16.859Z,21
2018-04-17T04:24:08.119Z,21
2018-04-17T04:24:57.764Z,21
2018-04-17T04:25:48.263Z,20.9
2018-04-17T04:26:37.374Z,20.9
2018-04-17T04:27:27.904Z,20.9
2018-04-17T04:28:17.702Z,20.9
2018-04-17T04:29:07.499Z,21
2018-04-17T04:29:57.908Z,21
2018-04-17T04:30:47.696Z,21
2018-04-17T04:31:37.816Z,21.1
2018-04-17T04:32:27.341Z,21
2018-04-17T04:33:17.672Z,21.1
2018-04-17T04:34:07.410Z,21.1
2018-04-17T04:34:58.156Z,21.1
2018-04-17T04:41:38.853Z,21.2
2018-04-17T04:43:18.797Z,21.2
2018-04-17T04:44:23.913Z,21.2
2018-04-17T04:44:59.086Z,21.2
2018-04-17T04:45:48.896Z,21.2
2018-04-17T04:47:28.898Z,21.2
2018-04-17T04:48:19.315Z,21.2
2018-04-17T04:49:07.954Z,21.2
2018-04-17T04:49:59.456Z,21.2
2018-04-17T04:50:49.773Z,21.2
2018-04-17T04:51:39.006Z,21.2
2018-04-17T04:52:29.590Z,21.2
2018-04-17T04:53:19.900Z,21.2
2018-04-17T04:54:09.468Z,21.2
2018-04-17T04:57:30.199Z,21.2
2018-04-17T05:21:41.532Z,21.1
2018-04-17T05:25:52.092Z,21.1
2018-04-17T05:26:42.169Z,21.1
2018-04-17T05:27:31.102Z,21.1
2018-04-17T05:28:22.344Z,21.1
2018-04-17T05:30:03.271Z,21.1
2018-04-17T05:30:52.504Z,21.1
2018-04-17T05:34:12.525Z,21.1
2018-04-17T05:35:01.937Z,21.1
2018-04-17T05:35:52.887Z,21.1
2018-04-17T05:36:43.294Z,21.1
2018-04-17T05:37:32.934Z,21.1
2018-04-17T05:38:37.748Z,21.1
2018-04-17T05:39:12.863Z,21.1
2018-04-17T05:40:03.499Z,21.1
2018-04-17T05:40:53.528Z,21.1
2018-04-17T05:41:42.870Z,21.1
2018-04-17T05:42:33.148Z,21.1
2018-04-17T05:44:13.540Z,21.1
2018-04-17T05:45:53.597Z,21.1
2018-04-17T05:46:43.650Z,21.1
2018-04-17T05:47:34.250Z,21.1
2018-04-17T05:49:28.274Z,21.1
2018-04-17T05:50:03.725Z,21.1
2018-04-17T05:50:54.021Z,21.1
2018-04-17T05:51:44.838Z,21.1
2018-04-17T05:52:34.130Z,21.1
2018-04-17T05:53:24.569Z,21.1
2018-04-17T05:54:14.569Z,21.1
2018-04-17T05:55:04.880Z,21.1
2018-04-17T05:56:09.331Z,21.1
2018-04-17T05:56:44.745Z,21.1
2018-04-17T05:57:34.522Z,21.1
2018-04-17T05:58:24.843Z,21.1
2018-04-17T05:59:29.300Z,21.1
2018-04-17T06:00:19.091Z,21
2018-04-17T06:00:55.063Z,21.1
2018-04-17T06:02:35.147Z,21.1
2018-04-17T06:03:24.686Z,21.1
2018-04-17T06:04:15.057Z,21.1
2018-04-17T06:05:05.114Z,21.1
2018-04-17T06:13:25.723Z,21.2
2018-04-17T06:14:15.777Z,21.2
2018-04-17T06:15:05.829Z,21.2
2018-04-17T06:17:35.435Z,21.2
2018-04-17T06:25:56.069Z,21.1
2018-04-17T06:28:25.775Z,21.1
2018-04-17T06:29:16.346Z,21.1
2018-04-17T06:30:06.312Z,21.1
2018-04-17T06:31:11.418Z,21.1
2018-04-17T06:32:00.883Z,21.1
2018-04-17T06:32:36.615Z,21.1
2018-04-17T06:33:26.622Z,21.1
2018-04-17T06:34:16.725Z,21.1
2018-04-17T06:35:07.223Z,21.1
2018-04-17T06:35:57.340Z,21.1
2018-04-17T06:36:47.187Z,21.1
2018-04-17T06:37:37.305Z,21
2018-04-17T06:38:42.434Z,21.1
2018-04-17T06:39:16.962Z,21.1
2018-04-17T06:40:07.206Z,21
2018-04-17T06:40:57.492Z,21.1
2018-04-17T06:41:48.266Z,21.1
2018-04-17T06:42:37.614Z,21.1
2018-04-17T06:43:28.126Z,21
2018-04-17T06:44:18.278Z,21
2018-04-17T06:45:07.325Z,21
2018-04-17T06:45:58.081Z,21
2018-04-17T06:46:48.455Z,21
2018-04-17T06:47:54.366Z,21
2018-04-17T06:48:42.369Z,21
2018-04-17T06:49:19.351Z,21
2018-04-17T06:50:08.491Z,21
2018-04-17T06:50:57.988Z,21
2018-04-17T06:51:48.359Z,21
2018-04-17T06:52:39.083Z,21
2018-04-17T06:53:28.763Z,21
2018-04-17T06:54:18.475Z,21
2018-04-17T06:55:08.911Z,21
2018-04-17T06:55:58.262Z,21
2018-04-17T06:56:49.263Z,21
2018-04-17T06:58:10.928Z,21
2018-04-17T06:58:27.765Z,21
2018-04-17T06:59:19.542Z,21
2018-04-17T07:00:09.770Z,21
2018-04-17T07:01:14.244Z,21
2018-04-17T07:02:04.037Z,21
2018-04-17T07:02:39.125Z,21
2018-04-17T07:03:29.300Z,21
2018-04-17T07:04:19.498Z,21
2018-04-17T07:05:09.818Z,21
2018-04-17T07:06:00.363Z,21
2018-04-17T07:06:49.752Z,21
2018-04-17T07:07:40.515Z,21
2018-04-17T07:08:29.185Z,20.9
2018-04-17T07:09:20.482Z,21
2018-04-17T07:10:09.914Z,20.9
2018-04-17T07:11:00.018Z,20.9
2018-04-17T07:11:49.703Z,20.9
2018-04-17T07:12:40.656Z,21
2018-04-17T07:13:29.395Z,20.9
2018-04-17T07:14:19.943Z,20.9
2018-04-17T07:15:10.574Z,21
2018-04-17T07:16:00.366Z,20.9
2018-04-17T07:16:50.711Z,20.9
2018-04-17T07:17:39.793Z,20.9
2018-04-17T07:18:29.855Z,20.9
2018-04-17T07:19:20.706Z,20.9
2018-04-17T07:20:10.755Z,20.9
2018-04-17T07:21:01.111Z,20.9
2018-04-17T07:22:05.214Z,20.9
2018-04-17T07:22:40.748Z,20.9
2018-04-17T07:23:30.478Z,20.9
2018-04-17T07:24:20.196Z,20.9
2018-04-17T07:25:10.911Z,20.9
2018-04-17T07:26:01.168Z,20.9
2018-04-17T07:26:50.149Z,20.9
2018-04-17T07:27:41.003Z,20.9
2018-04-17T07:28:31.150Z,20.9
2018-04-17T07:29:35.906Z,20.9
2018-04-17T07:30:10.701Z,20.9
2018-04-17T07:31:01.350Z,20.9
2018-04-17T07:31:50.768Z,20.9
2018-04-17T07:32:41.568Z,20.9
2018-04-17T07:33:31.825Z,20.9
2018-04-17T07:34:20.854Z,20.9
2018-04-17T07:35:11.585Z,20.9
2018-04-17T07:36:01.379Z,20.9
2018-04-17T07:36:52.227Z,20.9
2018-04-17T07:37:41.324Z,20.9
2018-04-17T07:38:31.947Z,20.9
2018-04-17T07:39:21.868Z,20.9
2018-04-17T07:40:12.261Z,20.9
2018-04-17T07:41:02.145Z,20.9
2018-04-17T07:41:52.657Z,20.9
2018-04-17T07:42:42.184Z,20.9
2018-04-17T07:43:47.921Z,20.9
2018-04-17T07:44:22.857Z,20.9
2018-04-17T07:45:26.714Z,20.9
2018-04-17T07:46:02.727Z,20.9
2018-04-17T07:46:53.004Z,20.9
2018-04-17T07:47:42.373Z,20.9
2018-04-17T07:48:33.380Z,20.9
2018-04-17T07:49:37.906Z,20.9
2018-04-17T07:50:12.781Z,20.9
2018-04-17T07:51:03.099Z,20.9
2018-04-17T07:51:52.360Z,20.9
2018-04-17T07:52:43.524Z,20.9
2018-04-17T07:53:33.559Z,20.9
2018-04-17T07:54:23.267Z,20.9
2018-04-17T07:55:13.430Z,20.9
2018-04-17T07:56:04.330Z,20.9
2018-04-17T07:56:53.181Z,20.9
2018-04-17T07:57:43.678Z,20.9
2018-04-17T07:58:34.031Z,20.9
2018-04-17T07:59:23.646Z,20.9
2018-04-17T08:00:13.521Z,20.9
2018-04-17T08:01:03.881Z,20.9
2018-04-17T08:01:54.491Z,20.9
2018-04-17T08:02:43.953Z,20.9
2018-04-17T08:03:33.756Z,20.9
2018-04-17T08:04:23.785Z,20.9
2018-04-17T08:05:13.651Z,20.9
2018-04-17T08:06:04.253Z,20.9
2018-04-17T08:07:08.696Z,20.9
2018-04-17T08:07:44.673Z,20.9
2018-04-17T08:08:34.460Z,20.9
2018-04-17T08:09:23.658Z,20.9
2018-04-17T08:10:13.801Z,20.9
2018-04-17T08:11:03.797Z,20.9
2018-04-17T08:11:55.437Z,20.9
2018-04-17T08:12:44.170Z,20.9
2018-04-17T08:13:34.315Z,20.9
2018-04-17T08:14:24.408Z,20.9
2018-04-17T08:15:13.556Z,20.9
2018-04-17T08:16:04.530Z,20.9
2018-04-17T08:16:54.811Z,20.9
2018-04-17T08:17:45.670Z,20.9
2018-04-17T08:18:34.960Z,20.9
2018-04-17T08:19:25.442Z,20.9
2018-04-17T08:20:15.002Z,20.9
2018-04-17T08:21:05.360Z,20.9
2018-04-17T08:21:54.984Z,20.9
2018-04-17T08:22:45.457Z,20.9
2018-04-17T08:23:49.677Z,20.9
2018-04-17T08:24:25.897Z,20.9
2018-04-17T08:25:16.000Z,20.9
2018-04-17T08:26:05.764Z,20.8
2018-04-17T08:27:25.161Z,20.9
2018-04-17T08:27:45.892Z,20.9
2018-04-17T08:28:35.151Z,20.9
2018-04-17T08:29:26.077Z,20.9
2018-04-17T08:30:31.002Z,20.9
2018-04-17T08:31:05.350Z,20.9
2018-04-17T08:31:56.719Z,20.9
2018-04-17T08:32:46.129Z,20.9
2018-04-17T08:33:36.026Z,20.9
2018-04-17T08:34:26.431Z,20.8
2018-04-17T08:35:15.982Z,20.8
2018-04-17T08:36:05.816Z,20.9
2018-04-17T08:36:56.880Z,20.9
2018-04-17T08:37:46.747Z,20.9
2018-04-17T08:38:37.283Z,20.9
2018-04-17T08:39:27.215Z,20.9
2018-04-17T08:40:17.151Z,20.8
2018-04-17T08:41:06.681Z,20.9
2018-04-17T08:41:57.059Z,20.9
2018-04-17T08:42:47.346Z,20.8
2018-04-17T08:43:36.825Z,20.8
2018-04-17T08:44:27.488Z,20.9
2018-04-17T08:45:17.541Z,20.8
2018-04-17T08:46:07.626Z,20.8
2018-04-17T08:47:29.708Z,20.8
2018-04-17T08:47:47.286Z,20.8
2018-04-17T08:48:37.209Z,20.8
2018-04-17T08:49:26.592Z,20.8
2018-04-17T08:50:17.666Z,20.8
2018-04-17T08:51:07.424Z,20.8
2018-04-17T08:51:57.791Z,20.8
2018-04-17T08:52:47.304Z,20.8
2018-04-17T08:53:37.543Z,20.8
2018-04-17T08:54:28.373Z,20.8
2018-04-17T08:55:17.262Z,20.8
2018-04-17T08:56:07.470Z,20.8
2018-04-17T08:56:57.925Z,20.8
2018-04-17T08:57:48.377Z,20.8
2018-04-17T08:58:38.014Z,20.8
2018-04-17T08:59:43.979Z,20.8
2018-04-17T09:00:18.897Z,20.8
2018-04-17T09:01:23.869Z,20.8
2018-04-17T09:01:57.772Z,20.8
2018-04-17T09:03:02.962Z,20.8
2018-04-17T09:03:43.372Z,20.8
2018-04-17T09:04:32.872Z,20.8
2018-04-17T09:05:24.121Z,20.8
2018-04-17T09:06:45.350Z,20.8
2018-04-17T09:07:03.604Z,20.8
2018-04-17T09:07:52.884Z,20.8
2018-04-17T09:08:43.834Z,20.8
2018-04-17T09:09:33.782Z,20.8
2018-04-17T09:10:23.652Z,20.8
2018-04-17T09:11:14.681Z,20.8
2018-04-17T09:12:04.056Z,20.8
2018-04-17T09:12:52.510Z,20.8
2018-04-17T09:13:43.916Z,20.8
2018-04-17T09:14:33.444Z,20.8
2018-04-17T09:15:38.352Z,20.8
2018-04-17T09:16:14.065Z,20.8
2018-04-17T09:17:03.553Z,20.8
2018-04-17T09:17:53.881Z,20.8
2018-04-17T09:18:44.289Z,20.8
2018-04-17T09:19:34.888Z,20.8
2018-04-17T09:20:24.487Z,20.8
2018-04-17T09:21:13.601Z,20.8
2018-04-17T09:22:04.787Z,20.8
2018-04-17T09:23:08.684Z,20.8
2018-04-17T09:24:00.127Z,20.8
2018-04-17T09:24:33.426Z,20.8
2018-04-17T09:25:38.842Z,20.8
2018-04-17T09:26:15.296Z,20.8
2018-04-17T09:27:04.143Z,20.8
2018-04-17T09:27:54.693Z,20.8
2018-04-17T09:28:45.300Z,20.8
2018-04-17T09:29:35.379Z,20.8
2018-04-17T09:31:15.159Z,20.8
2018-04-17T09:32:05.865Z,20.8
2018-04-17T09:32:55.952Z,20.8
2018-04-17T09:33:45.949Z,20.8
2018-04-17T09:34:36.048Z,20.8
2018-04-17T09:35:25.815Z,20.8
2018-04-17T09:36:16.123Z,20.8
2018-04-17T09:37:06.002Z,20.8
2018-04-17T09:37:55.945Z,20.8
2018-04-17T09:39:00.448Z,20.8
2018-04-17T09:39:35.265Z,20.8
2018-04-17T09:40:26.226Z,20.8
2018-04-17T09:41:16.341Z,20.8
2018-04-17T09:42:06.019Z,20.8
2018-04-17T09:42:55.776Z,20.8
2018-04-17T09:43:46.424Z,20.8
2018-04-17T09:44:36.679Z,20.8
2018-04-17T09:45:26.745Z,20.8
2018-04-17T09:46:16.587Z,20.8
2018-04-17T09:47:06.873Z,20.8
2018-04-17T09:47:56.467Z,20.8
2018-04-17T09:48:46.542Z,20.8
2018-04-17T09:49:36.946Z,20.8
2018-04-17T09:50:41.840Z,20.8
2018-04-17T09:51:16.989Z,20.8
2018-04-17T09:52:05.762Z,20.8
2018-04-17T09:52:57.439Z,20.8
2018-04-17T09:53:46.678Z,20.8
2018-04-17T09:54:37.255Z,20.8
2018-04-17T09:55:27.075Z,20.8
2018-04-17T09:56:17.263Z,20.8
2018-04-17T09:57:07.883Z,20.8
2018-04-17T09:58:11.959Z,20.8
2018-04-17T09:59:02.046Z,20.8
2018-04-17T09:59:37.131Z,20.8
2018-04-17T10:00:42.047Z,20.8
2018-04-17T10:01:17.212Z,20.8
2018-04-17T10:02:08.067Z,20.8
2018-04-17T10:02:57.452Z,20.8
2018-04-17T10:03:47.959Z,20.8
2018-04-17T10:04:38.315Z,20.8
2018-04-17T10:05:27.843Z,20.8
2018-04-17T10:06:17.485Z,20.8
2018-04-17T10:07:07.901Z,20.8
2018-04-17T10:07:58.841Z,20.8
2018-04-17T10:08:49.081Z,20.8
2018-04-17T10:09:38.103Z,20.8
2018-04-17T10:10:28.188Z,20.8
2018-04-17T10:11:18.693Z,20.8
2018-04-17T10:12:08.956Z,20.8
2018-04-17T10:12:58.699Z,20.8
2018-04-17T10:13:48.188Z,20.8
2018-04-17T10:14:38.520Z,20.8
2018-04-17T10:15:28.839Z,20.8
2018-04-17T10:16:18.375Z,20.8
2018-04-17T10:17:08.272Z,20.8
2018-04-17T10:17:59.228Z,20.8
2018-04-17T10:18:48.575Z,20.8
2018-04-17T10:19:38.828Z,20.8
2018-04-17T10:20:29.105Z,20.8
2018-04-17T10:21:19.625Z,20.8
2018-04-17T10:22:09.413Z,20.8
2018-04-17T10:22:58.710Z,20.8
2018-04-17T10:23:49.289Z,20.8
2018-04-17T10:24:39.622Z,20.8
2018-04-17T10:25:29.674Z,20.8
2018-04-17T10:26:19.937Z,20.8
2018-04-17T10:27:09.797Z,20.8
2018-04-17T10:28:14.737Z,20.8
2018-04-17T10:29:04.781Z,20.7
2018-04-17T10:29:39.934Z,20.8
2018-04-17T10:30:29.862Z,20.7
2018-04-17T10:31:34.450Z,20.7
2018-04-17T10:32:09.566Z,20.7
2018-04-17T10:33:15.077Z,20.7
2018-04-17T10:34:27.522Z,20.7
2018-04-17T10:35:17.841Z,20.8
2018-04-17T10:36:08.232Z,20.7
2018-04-17T10:36:57.739Z,20.8
2018-04-17T10:37:47.775Z,20.7
2018-04-17T10:38:38.424Z,20.7
2018-04-17T10:39:27.418Z,20.7
2018-04-17T10:40:18.497Z,20.7
2018-04-17T10:41:07.778Z,20.7
2018-04-17T10:41:58.414Z,20.8
2018-04-17T10:42:48.224Z,20.7
2018-04-17T10:43:38.501Z,20.7
2018-04-17T10:44:28.023Z,20.7
2018-04-17T10:45:17.127Z,20.7
2018-04-17T10:46:08.246Z,20.8
2018-04-17T10:46:58.892Z,20.7
2018-04-17T10:47:47.553Z,20.8
2018-04-17T10:48:37.449Z,20.7
2018-04-17T10:49:27.656Z,20.7
2018-04-17T10:50:18.286Z,20.7
2018-04-17T10:51:08.557Z,20.7
2018-04-17T10:51:59.129Z,20.7
2018-04-17T10:52:48.663Z,20.7
2018-04-17T10:53:39.605Z,20.8
2018-04-17T10:54:28.771Z,20.7
2018-04-17T10:55:19.218Z,20.7
2018-04-17T10:56:09.163Z,20.7
2018-04-17T10:56:59.248Z,20.7
2018-04-17T10:57:49.368Z,20.7
2018-04-17T10:58:39.685Z,20.7
2018-04-17T10:59:28.308Z,20.8
2018-04-17T11:00:19.836Z,20.7
2018-04-17T11:01:09.884Z,20.7
2018-04-17T11:01:59.897Z,20.7
2018-04-17T11:02:49.685Z,20.7
2018-04-17T11:03:39.785Z,20.7
2018-04-17T11:04:30.397Z,20.7
2018-04-17T11:05:20.228Z,20.7
2018-04-17T11:06:10.259Z,20.7
2018-04-17T11:07:00.252Z,20.7
2018-04-17T11:07:50.628Z,20.7
2018-04-17T11:08:39.577Z,20.8
2018-04-17T11:09:29.975Z,20.7
2018-04-17T11:10:20.654Z,20.7
2018-04-17T11:11:10.615Z,20.8
2018-04-17T11:12:00.707Z,20.7
2018-04-17T11:12:51.039Z,20.8
2018-04-17T11:13:39.387Z,20.8
2018-04-17T11:14:30.962Z,20.8
2018-04-17T11:15:20.942Z,20.8
2018-04-17T11:16:10.744Z,20.8
2018-04-17T11:17:01.389Z,20.8
2018-04-17T11:17:51.121Z,20.8
2018-04-17T11:18:41.189Z,20.8
2018-04-17T11:19:31.350Z,20.8
2018-04-17T11:20:20.759Z,20.8
2018-04-17T11:21:10.823Z,20.8
2018-04-17T11:22:01.470Z,20.8
2018-04-17T11:22:51.798Z,20.8
2018-04-17T11:23:41.270Z,20.8
2018-04-17T11:24:31.479Z,20.8
2018-04-17T11:25:20.879Z,20.8
2018-04-17T11:26:11.848Z,20.8
2018-04-17T11:27:00.719Z,20.8
2018-04-17T11:27:51.905Z,20.8
2018-04-17T11:28:41.974Z,20.8
2018-04-17T11:29:31.759Z,20.8
2018-04-17T11:30:22.114Z,20.8
2018-04-17T11:31:11.316Z,20.8
2018-04-17T11:32:02.051Z,20.8
2018-04-17T11:32:52.047Z,20.8
2018-04-17T11:33:40.844Z,20.8
2018-04-17T11:34:32.231Z,20.8
2018-04-17T11:35:22.764Z,20.8
2018-04-17T11:36:12.319Z,20.8
2018-04-17T11:37:02.360Z,20.8
2018-04-17T11:37:52.708Z,20.8
2018-04-17T11:38:42.515Z,20.8
2018-04-17T11:39:33.116Z,20.8
2018-04-17T11:40:22.645Z,20.8
2018-04-17T11:41:12.643Z,20.8
2018-04-17T11:42:03.034Z,20.8
2018-04-17T11:42:52.915Z,20.8
2018-04-17T11:43:42.593Z,20.8
2018-04-17T11:44:32.935Z,20.8
2018-04-17T11:45:22.965Z,20.8
2018-04-17T11:46:13.035Z,20.8
2018-04-17T11:47:02.817Z,20.8
2018-04-17T11:47:53.705Z,20.8
2018-04-17T11:48:44.089Z,20.8
2018-04-17T11:49:33.324Z,20.8
2018-04-17T11:50:22.808Z,20.8
2018-04-17T11:51:13.690Z,20.8
2018-04-17T11:52:03.776Z,20.8
2018-04-17T11:52:53.253Z,20.8
2018-04-17T11:53:44.169Z,20.8
2018-04-17T11:54:34.280Z,20.8
2018-04-17T11:55:24.032Z,20.8
2018-04-17T11:56:14.052Z,20.8
2018-04-17T11:57:03.905Z,20.8
2018-04-17T11:57:54.492Z,20.8
2018-04-17T11:58:44.538Z,20.8
2018-04-17T11:59:34.627Z,20.8
2018-04-17T12:00:23.564Z,20.8
2018-04-17T12:01:13.981Z,20.8
2018-04-17T12:02:04.088Z,20.8
2018-04-17T12:02:53.755Z,20.8
2018-04-17T12:03:43.789Z,20.8
2018-04-17T12:04:34.744Z,20.8
2018-04-17T12:05:24.224Z,20.8
2018-04-17T12:06:14.594Z,20.8
2018-04-17T12:07:04.151Z,20.8
2018-04-17T12:07:54.964Z,20.8
2018-04-17T12:08:44.169Z,20.8
2018-04-17T12:09:35.237Z,20.8
2018-04-17T12:10:25.189Z,20.8
2018-04-17T12:11:14.947Z,20.8
2018-04-17T12:12:05.556Z,20.8
2018-04-17T12:12:55.358Z,20.8
2018-04-17T12:13:45.149Z,20.8
2018-04-17T12:14:35.604Z,20.8
2018-04-17T12:15:25.621Z,20.8
2018-04-17T12:16:15.348Z,20.8
2018-04-17T12:17:05.726Z,20.8
2018-04-17T12:17:55.771Z,20.8
2018-04-17T12:18:46.126Z,20.8